sensor_id;sensor_type;location;lat;lon;timestamp;P1;P2;P0
12542;PMS3003;6337;49.556;25.594;2023-02-28T00:00:41;11.27;8.13;
12542;PMS3003;6337;49.556;25.594;2023-02-28T00:03:09;13.15;8.35;
12542;PMS3003;6337;49.556;25.594;2023-02-28T00:05:38;14.35;7.90;
12542;PMS3003;6337;49.556;25.594;2023-02-28T00:08:06;13.93;8.63;
12542;PMS3003;6337;49.556;25.594;2023-02-28T00:10:44;13.27;7.18;
12542;PMS3003;6337;49.556;25.594;2023-02-28T00:13:12;12.23;7.25;
12542;PMS3003;6337;49.556;25.594;2023-02-28T00:15:40;11.02;7.10;
12542;PMS3003;6337;49.556;25.594;2023-02-28T00:18:08;17.10;9.40;
12542;PMS3003;6337;49.556;25.594;2023-02-28T00:20:39;11.10;6.80;
12542;PMS3003;6337;49.556;25.594;2023-02-28T00:23:08;18.60;8.43;
12542;PMS3003;6337;49.556;25.594;2023-02-28T00:25:35;12.82;9.00;
12542;PMS3003;6337;49.556;25.594;2023-02-28T00:28:12;12.35;8.45;
12542;PMS3003;6337;49.556;25.594;2023-02-28T00:30:43;13.63;7.53;
12542;PMS3003;6337;49.556;25.594;2023-02-28T00:33:12;12.98;9.43;
12542;PMS3003;6337;49.556;25.594;2023-02-28T00:35:40;10.90;8.32;
12542;PMS3003;6337;49.556;25.594;2023-02-28T00:38:07;19.13;9.65;
12542;PMS3003;6337;49.556;25.594;2023-02-28T00:40:35;20.08;9.25;
12542;PMS3003;6337;49.556;25.594;2023-02-28T00:43:03;14.68;8.80;
12542;PMS3003;6337;49.556;25.594;2023-02-28T00:45:32;18.67;9.80;
12542;PMS3003;6337;49.556;25.594;2023-02-28T00:47:59;14.07;11.40;
12542;PMS3003;6337;49.556;25.594;2023-02-28T00:50:30;20.00;10.50;
12542;PMS3003;6337;49.556;25.594;2023-02-28T00:52:58;17.45;10.73;
12542;PMS3003;6337;49.556;25.594;2023-02-28T00:55:26;17.92;10.10;
12542;PMS3003;6337;49.556;25.594;2023-02-28T00:57:53;14.52;10.32;
12542;PMS3003;6337;49.556;25.594;2023-02-28T01:00:21;16.60;10.27;
12542;PMS3003;6337;49.556;25.594;2023-02-28T01:02:50;15.98;9.50;
12542;PMS3003;6337;49.556;25.594;2023-02-28T01:05:18;15.43;8.88;
12542;PMS3003;6337;49.556;25.594;2023-02-28T01:07:49;13.63;8.80;
12542;PMS3003;6337;49.556;25.594;2023-02-28T01:10:16;17.90;9.52;
12542;PMS3003;6337;49.556;25.594;2023-02-28T01:12:44;12.73;6.88;
12542;PMS3003;6337;49.556;25.594;2023-02-28T01:15:12;11.90;8.27;
12542;PMS3003;6337;49.556;25.594;2023-02-28T01:17:41;10.40;6.93;
12542;PMS3003;6337;49.556;25.594;2023-02-28T01:20:12;16.23;9.73;
12542;PMS3003;6337;49.556;25.594;2023-02-28T01:22:40;17.10;8.55;
12542;PMS3003;6337;49.556;25.594;2023-02-28T01:25:08;14.20;9.73;
12542;PMS3003;6337;49.556;25.594;2023-02-28T01:27:41;17.38;9.20;
12542;PMS3003;6337;49.556;25.594;2023-02-28T01:30:09;19.10;7.82;
12542;PMS3003;6337;49.556;25.594;2023-02-28T01:32:39;11.82;7.40;
12542;PMS3003;6337;49.556;25.594;2023-02-28T01:35:07;17.73;10.15;
12542;PMS3003;6337;49.556;25.594;2023-02-28T01:37:36;10.30;7.93;
12542;PMS3003;6337;49.556;25.594;2023-02-28T01:40:06;14.25;8.75;
12542;PMS3003;6337;49.556;25.594;2023-02-28T01:42:34;15.32;8.10;
12542;PMS3003;6337;49.556;25.594;2023-02-28T01:45:06;15.77;10.25;
12542;PMS3003;6337;49.556;25.594;2023-02-28T01:47:38;17.67;9.55;
12542;PMS3003;6337;49.556;25.594;2023-02-28T01:50:07;15.77;9.95;
12542;PMS3003;6337;49.556;25.594;2023-02-28T01:52:41;17.05;10.52;
12542;PMS3003;6337;49.556;25.594;2023-02-28T01:55:12;13.88;8.93;
12542;PMS3003;6337;49.556;25.594;2023-02-28T01:57:43;15.43;8.73;
12542;PMS3003;6337;49.556;25.594;2023-02-28T02:00:14;12.77;9.60;
12542;PMS3003;6337;49.556;25.594;2023-02-28T02:02:42;11.05;9.15;
12542;PMS3003;6337;49.556;25.594;2023-02-28T02:05:12;12.85;9.32;
12542;PMS3003;6337;49.556;25.594;2023-02-28T02:07:52;10.90;9.30;
12542;PMS3003;6337;49.556;25.594;2023-02-28T02:10:23;14.57;9.57;
12542;PMS3003;6337;49.556;25.594;2023-02-28T02:12:56;14.98;9.25;
12542;PMS3003;6337;49.556;25.594;2023-02-28T02:15:29;19.13;10.07;
12542;PMS3003;6337;49.556;25.594;2023-02-28T02:18:01;18.25;9.15;
12542;PMS3003;6337;49.556;25.594;2023-02-28T02:20:59;19.27;10.55;
12542;PMS3003;6337;49.556;25.594;2023-02-28T02:26:29;15.07;8.50;
12542;PMS3003;6337;49.556;25.594;2023-02-28T02:29:06;20.67;10.32;
12542;PMS3003;6337;49.556;25.594;2023-02-28T02:31:48;16.67;10.00;
12542;PMS3003;6337;49.556;25.594;2023-02-28T02:40:15;13.75;9.10;
12542;PMS3003;6337;49.556;25.594;2023-02-28T02:42:49;15.00;9.80;
12542;PMS3003;6337;49.556;25.594;2023-02-28T02:45:23;13.80;8.82;
12542;PMS3003;6337;49.556;25.594;2023-02-28T02:47:55;10.48;7.25;
12542;PMS3003;6337;49.556;25.594;2023-02-28T02:50:24;12.18;8.55;
12542;PMS3003;6337;49.556;25.594;2023-02-28T02:52:55;13.73;9.05;
12542;PMS3003;6337;49.556;25.594;2023-02-28T02:55:26;15.68;8.90;
12542;PMS3003;6337;49.556;25.594;2023-02-28T02:57:56;13.18;7.43;
12542;PMS3003;6337;49.556;25.594;2023-02-28T03:00:26;11.30;8.95;
12542;PMS3003;6337;49.556;25.594;2023-02-28T03:02:54;9.43;7.18;
12542;PMS3003;6337;49.556;25.594;2023-02-28T03:05:25;14.07;8.95;
12542;PMS3003;6337;49.556;25.594;2023-02-28T03:07:58;12.95;8.43;
12542;PMS3003;6337;49.556;25.594;2023-02-28T03:13:20;10.13;8.18;
12542;PMS3003;6337;49.556;25.594;2023-02-28T03:15:57;12.20;8.05;
12542;PMS3003;6337;49.556;25.594;2023-02-28T03:18:28;20.27;9.90;
12542;PMS3003;6337;49.556;25.594;2023-02-28T03:21:01;18.55;10.02;
12542;PMS3003;6337;49.556;25.594;2023-02-28T03:23:32;22.13;11.80;
12542;PMS3003;6337;49.556;25.594;2023-02-28T03:26:04;20.02;12.43;
12542;PMS3003;6337;49.556;25.594;2023-02-28T03:28:36;16.08;11.85;
12542;PMS3003;6337;49.556;25.594;2023-02-28T03:31:07;16.58;12.18;
12542;PMS3003;6337;49.556;25.594;2023-02-28T03:33:41;24.13;12.00;
12542;PMS3003;6337;49.556;25.594;2023-02-28T03:36:12;14.23;10.85;
12542;PMS3003;6337;49.556;25.594;2023-02-28T03:38:41;14.88;11.57;
12542;PMS3003;6337;49.556;25.594;2023-02-28T03:41:14;21.50;10.70;
12542;PMS3003;6337;49.556;25.594;2023-02-28T03:43:47;20.05;11.13;
12542;PMS3003;6337;49.556;25.594;2023-02-28T03:46:18;15.55;10.10;
12542;PMS3003;6337;49.556;25.594;2023-02-28T03:48:48;14.20;10.10;
12542;PMS3003;6337;49.556;25.594;2023-02-28T03:51:23;12.68;9.88;
12542;PMS3003;6337;49.556;25.594;2023-02-28T03:53:53;11.77;9.07;
12542;PMS3003;6337;49.556;25.594;2023-02-28T03:56:24;9.52;7.68;
12542;PMS3003;6337;49.556;25.594;2023-02-28T04:02:06;17.38;7.90;
12542;PMS3003;6337;49.556;25.594;2023-02-28T04:04:38;8.95;6.90;
12542;PMS3003;6337;49.556;25.594;2023-02-28T04:07:14;13.25;8.00;
12542;PMS3003;6337;49.556;25.594;2023-02-28T04:09:42;12.10;7.50;
12542;PMS3003;6337;49.556;25.594;2023-02-28T04:12:10;15.65;9.30;
12542;PMS3003;6337;49.556;25.594;2023-02-28T04:14:37;12.13;9.38;
12542;PMS3003;6337;49.556;25.594;2023-02-28T04:17:07;23.15;9.43;
12542;PMS3003;6337;49.556;25.594;2023-02-28T04:19:37;15.02;9.70;
12542;PMS3003;6337;49.556;25.594;2023-02-28T04:22:04;19.90;11.63;
12542;PMS3003;6337;49.556;25.594;2023-02-28T04:24:32;12.93;8.45;
12542;PMS3003;6337;49.556;25.594;2023-02-28T04:27:00;12.95;8.27;
12542;PMS3003;6337;49.556;25.594;2023-02-28T04:32:40;11.82;8.07;
12542;PMS3003;6337;49.556;25.594;2023-02-28T04:35:09;13.43;9.32;
12542;PMS3003;6337;49.556;25.594;2023-02-28T04:37:37;25.02;10.50;
12542;PMS3003;6337;49.556;25.594;2023-02-28T04:40:05;14.30;9.15;
12542;PMS3003;6337;49.556;25.594;2023-02-28T04:42:34;18.05;10.65;
12542;PMS3003;6337;49.556;25.594;2023-02-28T04:45:04;13.25;11.63;
12542;PMS3003;6337;49.556;25.594;2023-02-28T04:47:35;13.77;8.80;
12542;PMS3003;6337;49.556;25.594;2023-02-28T04:50:08;10.07;8.43;
12542;PMS3003;6337;49.556;25.594;2023-02-28T04:52:39;16.58;9.60;
12542;PMS3003;6337;49.556;25.594;2023-02-28T04:55:09;19.38;9.60;
12542;PMS3003;6337;49.556;25.594;2023-02-28T04:57:36;14.60;9.88;
12542;PMS3003;6337;49.556;25.594;2023-02-28T05:00:05;19.05;9.07;
12542;PMS3003;6337;49.556;25.594;2023-02-28T05:02:42;16.67;10.48;
12542;PMS3003;6337;49.556;25.594;2023-02-28T05:05:27;14.00;8.40;
12542;PMS3003;6337;49.556;25.594;2023-02-28T05:07:56;16.83;9.57;
12542;PMS3003;6337;49.556;25.594;2023-02-28T05:10:24;12.60;10.27;
12542;PMS3003;6337;49.556;25.594;2023-02-28T05:12:54;15.60;10.05;
12542;PMS3003;6337;49.556;25.594;2023-02-28T05:19:12;17.48;11.50;
12542;PMS3003;6337;49.556;25.594;2023-02-28T05:21:49;16.48;10.15;
12542;PMS3003;6337;49.556;25.594;2023-02-28T05:24:19;19.30;10.85;
12542;PMS3003;6337;49.556;25.594;2023-02-28T05:33:21;22.17;12.90;
12542;PMS3003;6337;49.556;25.594;2023-02-28T05:35:52;11.00;9.88;
12542;PMS3003;6337;49.556;25.594;2023-02-28T05:41:30;20.50;9.65;
12542;PMS3003;6337;49.556;25.594;2023-02-28T05:43:58;15.93;10.43;
12542;PMS3003;6337;49.556;25.594;2023-02-28T05:46:30;12.93;8.85;
12542;PMS3003;6337;49.556;25.594;2023-02-28T05:48:59;17.55;11.02;
12542;PMS3003;6337;49.556;25.594;2023-02-28T05:51:27;18.63;9.65;
12542;PMS3003;6337;49.556;25.594;2023-02-28T05:53:58;18.95;11.32;
12542;PMS3003;6337;49.556;25.594;2023-02-28T05:56:25;19.55;11.60;
12542;PMS3003;6337;49.556;25.594;2023-02-28T05:58:58;16.27;11.07;
12542;PMS3003;6337;49.556;25.594;2023-02-28T06:01:31;20.63;11.82;
12542;PMS3003;6337;49.556;25.594;2023-02-28T06:04:01;18.25;10.38;
12542;PMS3003;6337;49.556;25.594;2023-02-28T06:06:32;21.23;11.32;
12542;PMS3003;6337;49.556;25.594;2023-02-28T06:09:04;19.33;11.88;
12542;PMS3003;6337;49.556;25.594;2023-02-28T06:11:31;22.60;13.63;
12542;PMS3003;6337;49.556;25.594;2023-02-28T06:14:01;35.70;12.15;
12542;PMS3003;6337;49.556;25.594;2023-02-28T06:16:30;28.67;13.13;
12542;PMS3003;6337;49.556;25.594;2023-02-28T06:18:59;27.17;13.05;
12542;PMS3003;6337;49.556;25.594;2023-02-28T06:21:30;20.63;11.85;
12542;PMS3003;6337;49.556;25.594;2023-02-28T06:24:01;30.15;13.98;
12542;PMS3003;6337;49.556;25.594;2023-02-28T06:26:30;26.63;15.52;
12542;PMS3003;6337;49.556;25.594;2023-02-28T06:29:03;27.35;16.50;
12542;PMS3003;6337;49.556;25.594;2023-02-28T06:31:32;20.13;16.15;
12542;PMS3003;6337;49.556;25.594;2023-02-28T06:34:03;28.45;15.93;
12542;PMS3003;6337;49.556;25.594;2023-02-28T06:36:34;27.38;18.20;
12542;PMS3003;6337;49.556;25.594;2023-02-28T06:39:07;30.48;18.58;
12542;PMS3003;6337;49.556;25.594;2023-02-28T06:41:48;27.42;18.10;
12542;PMS3003;6337;49.556;25.594;2023-02-28T06:44:21;26.40;16.30;
12542;PMS3003;6337;49.556;25.594;2023-02-28T06:46:50;27.17;15.60;
12542;PMS3003;6337;49.556;25.594;2023-02-28T06:49:31;25.83;14.93;
12542;PMS3003;6337;49.556;25.594;2023-02-28T06:52:02;18.65;13.40;
12542;PMS3003;6337;49.556;25.594;2023-02-28T06:54:31;26.15;14.30;
12542;PMS3003;6337;49.556;25.594;2023-02-28T07:03:13;19.00;10.07;
12542;PMS3003;6337;49.556;25.594;2023-02-28T07:05:46;20.38;10.50;
12542;PMS3003;6337;49.556;25.594;2023-02-28T07:08:17;31.60;13.77;
12542;PMS3003;6337;49.556;25.594;2023-02-28T07:10:46;18.38;12.07;
12542;PMS3003;6337;49.556;25.594;2023-02-28T07:13:17;38.63;15.52;
12542;PMS3003;6337;49.556;25.594;2023-02-28T07:15:52;21.48;11.95;
12542;PMS3003;6337;49.556;25.594;2023-02-28T07:18:24;21.52;14.27;
12542;PMS3003;6337;49.556;25.594;2023-02-28T07:20:56;19.35;11.30;
12542;PMS3003;6337;49.556;25.594;2023-02-28T07:23:39;18.48;11.38;
12542;PMS3003;6337;49.556;25.594;2023-02-28T07:26:07;16.27;12.23;
12542;PMS3003;6337;49.556;25.594;2023-02-28T07:28:39;25.50;12.63;
12542;PMS3003;6337;49.556;25.594;2023-02-28T07:31:10;18.25;10.27;
12542;PMS3003;6337;49.556;25.594;2023-02-28T07:34:17;20.63;10.30;
12542;PMS3003;6337;49.556;25.594;2023-02-28T07:36:47;17.42;9.88;
12542;PMS3003;6337;49.556;25.594;2023-02-28T07:39:18;22.58;11.10;
12542;PMS3003;6337;49.556;25.594;2023-02-28T07:41:47;12.30;8.63;
12542;PMS3003;6337;49.556;25.594;2023-02-28T07:53:51;36.38;17.42;
12542;PMS3003;6337;49.556;25.594;2023-02-28T07:56:18;33.22;16.73;
12542;PMS3003;6337;49.556;25.594;2023-02-28T08:01:56;9.75;8.05;
12542;PMS3003;6337;49.556;25.594;2023-02-28T08:14:25;9.20;8.00;
12542;PMS3003;6337;49.556;25.594;2023-02-28T08:17:18;18.00;9.18;
12542;PMS3003;6337;49.556;25.594;2023-02-28T08:20:13;19.67;10.20;
12542;PMS3003;6337;49.556;25.594;2023-02-28T08:57:20;13.02;9.32;
12542;PMS3003;6337;49.556;25.594;2023-02-28T11:31:06;17.13;8.00;
12542;PMS3003;6337;49.556;25.594;2023-02-28T11:47:19;14.17;8.17;
12542;PMS3003;6337;49.556;25.594;2023-02-28T12:22:29;11.18;7.50;
12542;PMS3003;6337;49.556;25.594;2023-02-28T12:25:18;17.40;6.75;
12542;PMS3003;6337;49.556;25.594;2023-02-28T12:27:54;10.32;6.97;
12542;PMS3003;6337;49.556;25.594;2023-02-28T12:30:22;11.55;6.47;
12542;PMS3003;6337;49.556;25.594;2023-02-28T12:33:00;9.93;5.80;
12542;PMS3003;6337;49.556;25.594;2023-02-28T12:44:34;9.48;5.90;
12542;PMS3003;6337;49.556;25.594;2023-02-28T12:47:03;10.75;6.00;
12542;PMS3003;6337;49.556;25.594;2023-02-28T12:49:34;8.32;6.32;
12542;PMS3003;6337;49.556;25.594;2023-02-28T12:52:04;10.27;5.25;
12542;PMS3003;6337;49.556;25.594;2023-02-28T12:54:38;7.18;5.50;
12542;PMS3003;6337;49.556;25.594;2023-02-28T13:15:47;9.10;5.25;
12542;PMS3003;6337;49.556;25.594;2023-02-28T13:18:29;8.95;5.90;
12542;PMS3003;6337;49.556;25.594;2023-02-28T13:21:01;7.53;5.60;
12542;PMS3003;6337;49.556;25.594;2023-02-28T13:23:41;9.32;5.38;
12542;PMS3003;6337;49.556;25.594;2023-02-28T13:29:51;6.93;4.70;
12542;PMS3003;6337;49.556;25.594;2023-02-28T13:32:27;4.35;3.95;
12542;PMS3003;6337;49.556;25.594;2023-02-28T13:44:01;10.30;6.75;
12542;PMS3003;6337;49.556;25.594;2023-02-28T13:46:29;6.80;6.05;
12542;PMS3003;6337;49.556;25.594;2023-02-28T13:58:38;6.72;5.70;
12542;PMS3003;6337;49.556;25.594;2023-02-28T14:07:09;10.25;6.78;
12542;PMS3003;6337;49.556;25.594;2023-02-28T14:12:58;8.77;6.13;
12542;PMS3003;6337;49.556;25.594;2023-02-28T14:15:30;10.50;6.85;
12542;PMS3003;6337;49.556;25.594;2023-02-28T14:18:02;11.05;6.50;
12542;PMS3003;6337;49.556;25.594;2023-02-28T14:20:31;14.38;7.15;
12542;PMS3003;6337;49.556;25.594;2023-02-28T14:23:02;9.50;6.10;
12542;PMS3003;6337;49.556;25.594;2023-02-28T14:25:32;9.02;7.15;
12542;PMS3003;6337;49.556;25.594;2023-02-28T14:28:08;12.95;7.13;
12542;PMS3003;6337;49.556;25.594;2023-02-28T14:31:21;10.93;6.40;
12542;PMS3003;6337;49.556;25.594;2023-02-28T14:43:20;8.52;6.22;
12542;PMS3003;6337;49.556;25.594;2023-02-28T14:45:49;11.27;7.30;
12542;PMS3003;6337;49.556;25.594;2023-02-28T14:48:19;9.77;6.32;
12542;PMS3003;6337;49.556;25.594;2023-02-28T14:50:48;15.57;6.85;
12542;PMS3003;6337;49.556;25.594;2023-02-28T14:53:20;11.20;6.78;
12542;PMS3003;6337;49.556;25.594;2023-02-28T14:55:49;8.93;6.78;
12542;PMS3003;6337;49.556;25.594;2023-02-28T14:58:23;11.85;6.75;
12542;PMS3003;6337;49.556;25.594;2023-02-28T21:24:55;16.38;11.48;
